Hauptseite
METAR-TAF:

METAR-TAF

Flughäfen :

Flughafen Mailand-Malpensa

Mailand, Italien

Breite: 45-37N, Länge: 008-44E, Höhe: 234 m

Beobachtung

Neuester Wetterbericht von vor 33 Minuten, um 01:50 UTC
Wind 6 kt aus Nord
Temperatur 3°C
Luftfeuchtigkeit 93%
Luftdruck 1024 hPa
Sichtweite 10 km oder mehr
Aufgelockert bewölkt in der Höhe von 4000 ft

METAR: LIMC 180150Z 35006KT 9999 SCT040 03/02 Q1024 NOSIG

Zeit: 03:23 (02:23 UTC)

Prognose

Neuester Wetterbericht von vor 3 Stunden und 23 Minuten, um 23:00 UTC
Gültige Prognose vom 18 um 00 UTC bis 19 um 06 UTC
Wind 5 kt aus unterschiedlichen Richtungen
Sichtweite 10 km oder mehr
Durchbrochene Bewölkung in der Höhe von 6000 ft

TAF: LIMC 172300Z 1800/1906 VRB05KT 9999 BKN060

Wetterbeobachtungen und Prognosen von mehr als 4000 Flughäfen (METAR und TAF Bericht).

Die verfügbaren Stationen werden durch gelbe und rote Markierungen auf der Karte dargestellt.

Führen Sie die Maus auf sie, um den Namen der Station zu sehen.

Darauf klicken, um die Beobachtung von Wetterbeobachtungen und Prognosen zu sehen.

Um die Karte zu ändern : klicken Sie auf den grünen Tasten mit einem schwarzen Kreuz Zum Vergrößern, auf den grünen Button mit einem Gedankenstrich zu verkleinern, oder auf die grünen Pfeile für benachbarte Karten.


METAR-TAF: